createdAt,value
2023-01-31T00:04:04.392Z,96950.50
2023-01-31T00:09:10.116Z,96963.31
2023-01-31T00:14:19.012Z,96990.56
2023-01-31T00:19:22.218Z,97002.22
2023-01-31T00:24:25.353Z,96995.88
2023-01-31T00:29:29.461Z,96986.50
2023-01-31T00:34:32.592Z,96982.56
2023-01-31T00:39:36.278Z,96967.56
2023-01-31T00:44:40.530Z,96965.16
2023-01-31T00:49:43.633Z,96958.94
2023-01-31T00:54:47.130Z,96946.00
2023-01-31T00:59:50.565Z,96950.06
2023-01-31T01:04:53.792Z,96954.00
2023-01-31T01:09:57.229Z,96941.66
2023-01-31T01:15:00.506Z,96947.16
2023-01-31T01:20:03.973Z,96943.75
2023-01-31T01:25:08.111Z,96936.38
2023-01-31T01:30:12.695Z,96923.16
2023-01-31T01:35:16.189Z,96920.72
2023-01-31T01:40:19.337Z,96910.72
2023-01-31T01:45:23.146Z,96916.03
2023-01-31T01:50:36.931Z,96922.84
2023-01-31T01:56:03.986Z,96919.06
2023-01-31T02:01:08.735Z,96908.84
2023-01-31T02:06:13.071Z,96900.09
2023-01-31T02:11:25.090Z,96896.09
2023-01-31T02:16:29.271Z,96885.06
2023-01-31T02:21:47.543Z,96895.00
2023-01-31T02:27:31.037Z,96893.03
2023-01-31T02:32:58.663Z,96881.44
2023-01-31T02:38:11.064Z,96874.59
2023-01-31T02:43:26.328Z,96866.34
2023-01-31T02:48:44.121Z,96878.38
2023-01-31T02:53:56.324Z,96885.34
2023-01-31T02:59:10.717Z,96876.47
2023-01-31T03:04:15.154Z,96898.91
2023-01-31T03:09:20.227Z,96886.78
2023-01-31T03:14:32.057Z,96908.25
2023-01-31T03:20:02.930Z,96888.09
2023-01-31T03:25:12.661Z,96883.66
2023-01-31T03:30:36.808Z,96883.22
2023-01-31T03:35:43.230Z,96871.84
2023-01-31T03:41:18.656Z,96876.94
2023-01-31T03:46:31.632Z,96883.03
2023-01-31T03:51:37.475Z,96900.84
2023-01-31T03:57:01.569Z,96885.13
2023-01-31T04:02:09.124Z,96904.88
2023-01-31T04:07:12.611Z,96907.69
2023-01-31T04:12:16.594Z,96917.19
2023-01-31T04:17:19.779Z,96926.00
2023-01-31T04:22:23.306Z,96948.28
2023-01-31T04:27:26.345Z,96943.00
2023-01-31T04:32:29.477Z,96936.88
2023-01-31T04:37:33.043Z,96958.97
2023-01-31T04:42:36.523Z,96942.19
2023-01-31T04:47:39.693Z,96973.19
2023-01-31T04:52:43.248Z,96992.94
2023-01-31T04:57:46.474Z,96999.13
2023-01-31T05:02:49.744Z,97005.22
2023-01-31T05:07:52.895Z,97039.66
2023-01-31T05:12:56.035Z,97018.41
2023-01-31T05:17:59.344Z,97028.47
2023-01-31T05:23:02.823Z,97018.59
2023-01-31T05:28:06.140Z,97012.13
2023-01-31T05:33:10.571Z,97013.09
2023-01-31T05:38:15.974Z,97014.53
2023-01-31T05:43:19.626Z,97009.19
2023-01-31T05:48:22.907Z,96994.84
2023-01-31T05:53:26.038Z,96989.22
2023-01-31T05:58:29.267Z,97000.41
2023-01-31T06:03:32.483Z,97003.84
2023-01-31T06:08:35.673Z,97008.28
2023-01-31T06:13:40.041Z,97014.78
2023-01-31T06:18:43.285Z,97019.88
2023-01-31T06:23:48.030Z,97024.31
2023-01-31T06:28:51.029Z,97039.50
2023-01-31T06:33:54.482Z,97042.16
2023-01-31T06:38:58.148Z,97036.84
2023-01-31T06:44:01.365Z,97051.13
2023-01-31T06:49:04.563Z,97058.78
2023-01-31T06:54:07.894Z,97071.66
2023-01-31T06:59:11.057Z,97070.78
2023-01-31T07:04:14.555Z,97056.84
2023-01-31T07:09:17.834Z,97067.13
2023-01-31T07:14:21.072Z,97071.19
2023-01-31T07:19:24.748Z,97059.78
2023-01-31T07:24:27.857Z,97078.47
2023-01-31T07:29:31.329Z,97081.03
2023-01-31T07:34:34.675Z,97087.59
2023-01-31T07:39:37.583Z,97089.69
2023-01-31T07:44:40.551Z,97092.88
2023-01-31T07:49:43.718Z,97091.88
2023-01-31T07:54:47.643Z,97099.88
2023-01-31T07:59:51.154Z,97097.09
2023-01-31T08:04:54.217Z,97087.25
2023-01-31T08:09:57.110Z,97095.75
2023-01-31T08:15:02.136Z,97086.22
2023-01-31T08:20:08.343Z,97087.41
2023-01-31T08:25:11.840Z,97084.16
2023-01-31T08:30:15.905Z,97094.25
2023-01-31T08:35:19.349Z,97087.19
2023-01-31T08:40:22.870Z,97081.94
2023-01-31T08:45:26.515Z,97077.84
2023-01-31T08:50:31.588Z,97080.88
2023-01-31T08:55:36.875Z,97061.88
2023-01-31T09:00:40.639Z,97057.53
2023-01-31T09:05:45.043Z,97047.84
2023-01-31T09:10:53.098Z,97019.44
2023-01-31T09:16:05.412Z,97040.38
2023-01-31T09:21:16.029Z,97033.81
2023-01-31T09:26:19.280Z,97025.97
2023-01-31T09:31:22.202Z,97020.38
2023-01-31T09:36:25.291Z,97026.50
2023-01-31T09:41:31.948Z,97018.31
2023-01-31T09:46:45.114Z,97022.63
2023-01-31T09:51:52.022Z,97025.22
2023-01-31T09:57:00.379Z,97025.38
2023-01-31T10:02:15.456Z,97016.59
2023-01-31T10:07:32.183Z,97005.16
2023-01-31T10:12:46.072Z,97026.00
2023-01-31T10:18:12.851Z,97045.31
2023-01-31T10:23:25.596Z,97037.56
2023-01-31T10:28:40.918Z,97028.03
2023-01-31T10:33:56.894Z,97033.66
2023-01-31T10:39:20.827Z,97030.91
2023-01-31T10:44:52.395Z,97021.41
2023-01-31T10:49:56.361Z,97014.69
2023-01-31T10:55:37.864Z,97017.03
2023-01-31T11:00:41.232Z,97007.09
2023-01-31T11:05:53.143Z,97010.34
2023-01-31T11:10:58.184Z,97002.34
2023-01-31T11:16:03.545Z,97005.69
2023-01-31T11:21:08.270Z,97011.72
2023-01-31T11:26:12.943Z,96997.69
2023-01-31T11:31:21.438Z,97002.91
2023-01-31T11:36:25.860Z,97005.94
2023-01-31T11:41:37.582Z,96993.66
2023-01-31T11:47:03.831Z,97003.31
2023-01-31T11:52:18.833Z,97015.53
2023-01-31T11:57:27.816Z,97024.53
2023-01-31T12:02:41.977Z,97030.16
2023-01-31T12:07:51.578Z,97034.34
2023-01-31T12:13:16.416Z,97048.25
2023-01-31T12:18:49.664Z,97043.03
2023-01-31T12:24:12.302Z,97036.53
2023-01-31T12:29:42.351Z,97049.25
2023-01-31T12:34:59.583Z,97060.44
2023-01-31T12:40:26.909Z,97052.03
2023-01-31T12:45:34.795Z,97053.16
2023-01-31T12:50:52.811Z,97070.31
2023-01-31T12:55:55.934Z,97081.81
2023-01-31T13:01:04.956Z,97069.34
2023-01-31T13:06:15.428Z,97076.22
2023-01-31T13:11:25.353Z,97078.13
2023-01-31T13:16:47.708Z,97081.72
2023-01-31T13:21:57.444Z,97113.53
2023-01-31T13:27:23.547Z,97103.78
2023-01-31T13:32:36.293Z,97102.16
2023-01-31T13:37:43.933Z,97105.38
2023-01-31T13:42:50.961Z,97108.47
2023-01-31T13:48:00.820Z,97114.91
2023-01-31T13:53:07.440Z,97108.28
2023-01-31T13:58:34.243Z,97115.84
2023-01-31T14:04:18.317Z,97110.66
2023-01-31T14:09:32.041Z,97118.19
2023-01-31T14:14:35.246Z,97126.22
2023-01-31T14:19:44.249Z,97124.84
2023-01-31T14:24:47.448Z,97123.41
2023-01-31T14:30:54.364Z,97116.25
2023-01-31T14:36:26.848Z,97117.28
2023-01-31T14:41:57.809Z,97114.00
2023-01-31T14:47:08.191Z,97100.50
2023-01-31T14:52:22.016Z,97113.06
2023-01-31T14:57:30.522Z,97124.59
2023-01-31T15:02:33.953Z,97120.28
2023-01-31T15:07:57.073Z,97121.22
2023-01-31T15:13:00.609Z,97129.59
2023-01-31T15:18:16.719Z,97116.59
2023-01-31T15:23:26.144Z,97132.66
2023-01-31T15:28:40.503Z,97137.75
2023-01-31T15:33:49.534Z,97144.16
2023-01-31T15:38:58.250Z,97152.53
2023-01-31T15:44:24.773Z,97156.72
2023-01-31T15:49:40.164Z,97151.94
2023-01-31T15:55:05.916Z,97163.69
2023-01-31T16:00:23.979Z,97171.38
2023-01-31T16:05:37.876Z,97168.06
2023-01-31T16:10:43.636Z,97176.25
2023-01-31T16:15:49.083Z,97170.47
2023-01-31T16:20:55.420Z,97176.94
2023-01-31T16:26:26.257Z,97175.09
2023-01-31T16:31:33.762Z,97180.31
2023-01-31T16:36:50.256Z,97182.78
2023-01-31T16:41:57.220Z,97182.66
2023-01-31T16:47:01.183Z,97188.13
2023-01-31T16:52:28.705Z,97173.00
2023-01-31T16:57:31.960Z,97174.28
2023-01-31T17:02:41.702Z,97179.16
2023-01-31T17:07:47.463Z,97179.88
2023-01-31T17:12:53.448Z,97170.44
2023-01-31T17:17:59.590Z,97176.25
2023-01-31T17:23:08.963Z,97182.53
2023-01-31T17:28:14.861Z,97199.59
2023-01-31T17:33:17.942Z,97193.22
2023-01-31T17:38:21.099Z,97195.72
2023-01-31T17:43:24.760Z,97196.22
2023-01-31T17:48:29.299Z,97203.88
2023-01-31T17:53:37.422Z,97210.91
2023-01-31T17:58:43.987Z,97209.88
2023-01-31T18:03:47.280Z,97206.13
2023-01-31T18:08:52.483Z,97214.06
2023-01-31T18:13:59.325Z,97220.94
2023-01-31T18:19:06.747Z,97224.41
2023-01-31T18:24:10.865Z,97230.66
2023-01-31T18:29:15.538Z,97218.19
2023-01-31T18:34:18.787Z,97217.53
2023-01-31T18:39:22.083Z,97241.69
2023-01-31T18:44:25.271Z,97229.47
2023-01-31T18:49:28.403Z,97242.91
2023-01-31T18:54:34.458Z,97236.56
2023-01-31T18:59:37.567Z,97231.47
2023-01-31T19:04:40.875Z,97223.28
2023-01-31T19:09:44.075Z,97216.91
2023-01-31T19:14:48.348Z,97211.53
2023-01-31T19:19:52.331Z,97216.09
2023-01-31T19:24:55.819Z,97199.34
2023-01-31T19:29:59.176Z,97202.53
2023-01-31T19:35:02.330Z,97205.44
2023-01-31T19:40:05.972Z,97199.53
2023-01-31T19:45:10.156Z,97206.88
2023-01-31T19:50:13.364Z,97208.06
2023-01-31T19:55:16.433Z,97202.03
2023-01-31T20:00:20.935Z,97184.06
2023-01-31T20:05:24.699Z,97187.34
2023-01-31T20:10:27.974Z,97187.47
2023-01-31T20:15:31.693Z,97178.13
2023-01-31T20:20:34.875Z,97196.16
2023-01-31T20:25:38.238Z,97193.59
2023-01-31T20:30:41.614Z,97195.03
2023-01-31T20:35:44.832Z,97177.97
2023-01-31T20:40:54.426Z,97178.78
2023-01-31T20:46:10.106Z,97190.13
2023-01-31T20:51:13.647Z,97195.00
2023-01-31T20:56:17.011Z,97179.34
2023-01-31T21:01:20.242Z,97168.91
2023-01-31T21:06:23.154Z,97171.50
2023-01-31T21:11:27.492Z,97149.72
2023-01-31T21:16:31.080Z,97132.47
2023-01-31T21:21:34.178Z,97143.16
2023-01-31T21:26:37.363Z,97139.66
2023-01-31T21:31:40.717Z,97142.91
2023-01-31T21:36:45.724Z,97149.22
2023-01-31T21:41:49.018Z,97154.03
2023-01-31T21:46:52.387Z,97166.72
2023-01-31T21:51:55.436Z,97158.63
2023-01-31T21:56:58.859Z,97163.69
2023-01-31T22:02:02.211Z,97153.19
2023-01-31T22:07:05.307Z,97149.28
2023-01-31T22:12:08.394Z,97154.31
2023-01-31T22:17:11.658Z,97144.59
2023-01-31T22:22:15.226Z,97142.06
2023-01-31T22:27:18.586Z,97125.97
2023-01-31T22:32:21.538Z,97118.31
2023-01-31T22:37:24.712Z,97104.28
2023-01-31T22:42:27.901Z,97112.22
2023-01-31T22:47:32.591Z,97095.09
2023-01-31T22:52:37.018Z,97110.25
2023-01-31T22:57:40.549Z,97098.41
2023-01-31T23:02:44.055Z,97108.47
2023-01-31T23:07:47.146Z,97114.84
2023-01-31T23:12:50.864Z,97122.72
2023-01-31T23:17:54.000Z,97111.06
2023-01-31T23:22:58.549Z,97124.06
2023-01-31T23:28:01.728Z,97112.81
2023-01-31T23:33:04.796Z,97113.63
2023-01-31T23:38:08.453Z,97111.53
2023-01-31T23:43:11.467Z,97090.25
2023-01-31T23:48:15.371Z,97071.66
2023-01-31T23:53:18.671Z,97062.59
2023-01-31T23:58:21.715Z,97058.91
